Time;durP1;ratioP1;P1;durP2;ratioP2;P2;SDS_P1;SDS_P2;PMS_P1;PMS_P2;Temp;Humidity;BMP_temperature;BMP_pressure;BME280_temperature;BME280_humidity;BME280_pressure;Samples;Min_cycle;Max_cycle;Signal;HPM_P1;HPM_P2
2022/06/04 00:00:08;;;;;;;8.82;8.02;;;;;;;18.82;69.83;95270.47;5032326;28;20043;-71
2022/06/04 00:02:37;;;;;;;;;;;;;;;18.74;70.36;95263.41;5049276;28;20029;-72
2022/06/04 00:05:03;;;;;;;9.00;8.18;;;;;;;18.60;70.72;95261.41;5048492;28;20015;-71
2022/06/04 00:07:29;;;;;;;7.20;6.50;;;;;;;18.64;70.27;95258.28;5048456;28;20108;-71
2022/06/04 00:15:30;;;;;;;7.07;6.35;;;;;;;18.66;69.92;95244.97;5028386;28;20103;-71
2022/06/04 00:17:56;;;;;;;7.40;6.35;;;;;;;18.63;69.39;95230.31;5049510;28;20029;-71
2022/06/04 00:20:22;;;;;;;6.45;5.85;;;;;;;18.70;69.17;95247.09;5015446;28;20044;-71
2022/06/04 00:22:48;;;;;;;6.60;6.00;;;;;;;18.73;68.96;95243.31;5032034;28;20187;-71
2022/06/04 00:25:14;;;;;;;7.13;5.88;;;;;;;18.75;68.61;95238.75;5049814;28;20033;-71
2022/06/04 00:27:39;;;;;;;7.57;6.10;;;;;;;18.80;68.78;95243.50;5033808;28;20112;-72
2022/06/04 00:30:05;;;;;;;10.98;6.13;;;;;;;18.79;68.66;95245.31;5053401;28;20063;-72
2022/06/04 00:32:33;;;;;;;6.72;6.00;;;;;;;18.76;68.64;95240.38;5052915;28;20033;-72
2022/06/04 00:35:01;;;;;;;6.80;6.00;;;;;;;18.68;68.89;95238.53;5052121;28;20499;-71
2022/06/04 00:37:27;;;;;;;6.95;6.22;;;;;;;18.71;68.75;95247.91;5035366;28;20037;-71
2022/06/04 00:39:52;;;;;;;7.32;6.15;;;;;;;18.74;68.56;95243.16;5035273;28;20552;-71
2022/06/04 00:42:20;;;;;;;6.88;6.18;;;;;;;18.69;68.60;95239.34;5052238;28;20037;-71
2022/06/04 00:44:48;;;;;;;7.43;6.38;;;;;;;18.67;68.79;95234.28;5035321;28;20112;-71
2022/06/04 00:47:20;;;;;;;8.15;6.80;;;;;;;18.72;68.61;95234.59;5053229;28;20021;-71
2022/06/04 00:49:46;;;;;;;7.00;6.40;;;;;;;18.71;68.62;95224.22;5051858;28;20033;-71
2022/06/04 00:52:13;;;;;;;8.85;6.05;;;;;;;18.66;68.77;95222.09;5053213;28;20063;-71
2022/06/04 00:54:39;;;;;;;8.52;6.68;;;;;;;18.63;68.76;95218.97;5051743;28;20115;-71
2022/06/04 00:57:20;;;;;;;7.25;6.50;;;;;;;18.55;68.95;95214.53;5035247;28;20029;-72
2022/06/04 01:00:10;;;;;;;6.97;6.35;;;;;;;18.60;68.96;95214.88;5051358;28;20033;-71
2022/06/04 01:03:03;;;;;;;7.05;6.35;;;;;;;18.59;68.90;95215.88;5036553;28;20108;-71
2022/06/04 01:05:53;;;;;;;9.48;6.40;;;;;;;18.63;68.84;95214.53;5052795;28;20037;-71
2022/06/04 01:08:43;;;;;;;9.93;6.20;;;;;;;18.65;68.91;95220.47;5052778;28;20483;-71
2022/06/04 01:11:33;;;;;;;7.05;6.07;;;;;;;18.68;68.90;95212.22;5052938;28;20123;-71
2022/06/04 01:14:11;;;;;;;8.65;6.57;;;;;;;18.64;69.11;95210.94;5051247;28;20029;-71
2022/06/04 01:17:03;;;;;;;7.90;6.32;;;;;;;18.67;69.09;95215.88;5051519;28;20507;-71
2022/06/04 01:19:47;;;;;;;8.43;6.55;;;;;;;18.69;69.08;95206.00;5051343;28;20108;-71
2022/06/04 01:22:42;;;;;;;7.18;6.47;;;;;;;18.66;68.95;95208.94;5031637;28;20568;-71
2022/06/04 01:25:17;;;;;;;7.05;6.35;;;;;;;18.61;68.79;95206.00;5016397;28;20068;-71
2022/06/04 01:27:53;;;;;;;10.57;6.40;;;;;;;18.52;68.99;95188.56;5050990;28;20028;-71
2022/06/04 01:30:19;;;;;;;6.88;6.00;;;;;;;18.56;68.98;95200.44;5050736;28;20487;-71
2022/06/04 01:33:07;;;;;;;8.90;6.40;;;;;;;18.55;69.00;95206.66;5034622;28;20132;-71
2022/06/04 01:35:56;;;;;;;11.20;6.50;;;;;;;18.52;68.90;95199.91;5050943;28;20116;-71
2022/06/04 01:38:31;;;;;;;6.55;5.90;;;;;;;18.47;69.14;95196.13;5035015;28;20036;-71
2022/06/04 01:41:05;;;;;;;9.43;6.30;;;;;;;18.51;69.52;95194.84;5034082;28;20491;-71
2022/06/04 01:43:52;;;;;;;6.53;5.70;;;;;;;18.48;69.46;95195.16;5050093;28;20036;-72
2022/06/04 01:46:45;;;;;;;7.85;6.30;;;;;;;18.34;69.75;95195.84;5012025;28;20051;-71
2022/06/04 01:49:10;;;;;;;7.55;5.85;;;;;;;18.29;69.61;95201.59;5050709;28;20506;-71
2022/06/04 01:51:36;;;;;;;9.90;6.40;;;;;;;18.24;69.88;95199.44;5050373;28;20059;-71
2022/06/04 01:54:04;;;;;;;6.38;5.78;;;;;;;18.17;70.03;95195.84;5033990;28;20036;-71
2022/06/04 01:56:31;;;;;;;7.35;6.10;;;;;;;18.13;69.92;95191.88;5050575;28;20040;-71
2022/06/04 01:59:21;;;;;;;6.45;5.82;;;;;;;18.00;69.97;95194.22;5033637;28;20037;-71
2022/06/04 02:01:46;;;;;;;8.73;6.60;;;;;;;17.94;70.29;95197.47;5073822;28;20020;-71
2022/06/04 02:04:15;;;;;;;7.75;5.97;;;;;;;17.80;70.34;95201.56;5033705;28;20234;-71
2022/06/04 02:07:29;;;;;;;6.72;6.13;;;;;;;17.68;70.72;95208.88;5050418;28;20060;-71
2022/06/04 02:09:31;;;;;;;7.13;6.43;;;;;;;17.55;70.92;95219.03;5035320;28;20029;-71
2022/06/04 02:11:57;;;;;;;7.85;6.18;;;;;;;17.42;71.22;95212.44;5033406;28;20094;-71
2022/06/04 02:14:22;;;;;;;7.68;6.47;;;;;;;17.48;71.36;95226.75;5033738;28;20033;-71
2022/06/04 02:16:52;;;;;;;8.23;6.57;;;;;;;17.49;71.30;95236.25;5050189;28;20029;-71
2022/06/04 02:19:18;;;;;;;7.18;6.43;;;;;;;17.39;71.52;95236.41;5033874;28;20041;-71
2022/06/04 02:21:43;;;;;;;7.20;6.50;;;;;;;17.29;72.05;95237.50;5049728;28;20021;-71
2022/06/04 02:24:09;;;;;;;9.02;7.15;;;;;;;17.29;72.39;95246.19;5033598;28;20033;-71
2022/06/04 02:26:34;;;;;;;8.70;6.97;;;;;;;17.17;72.64;95237.78;5083415;28;20502;-71
2022/06/04 02:29:00;;;;;;;8.13;7.25;;;;;;;17.05;72.36;95267.06;5031416;28;20037;-71
2022/06/04 02:31:44;;;;;;;8.20;7.22;;;;;;;17.14;72.25;95281.91;5031924;28;20056;-71
2022/06/04 02:34:34;;;;;;;11.15;6.70;;;;;;;17.20;72.15;95286.53;5049411;28;20029;-71
2022/06/04 02:37:31;;;;;;;8.73;7.72;;;;;;;17.25;72.36;95280.81;5049354;28;20057;-71
2022/06/04 02:40:02;;;;;;;10.60;7.30;;;;;;;17.27;72.36;95277.03;5049651;28;20041;-71
2022/06/04 02:42:32;;;;;;;7.57;6.88;;;;;;;17.28;72.69;95272.63;5050847;28;20028;-71
2022/06/04 02:45:02;;;;;;;9.50;8.23;;;;;;;17.30;72.82;95275.88;5049463;28;20033;-71
2022/06/04 02:47:34;;;;;;;7.70;6.88;;;;;;;17.35;72.26;95282.31;5033449;28;20301;-71
2022/06/04 02:50:16;;;;;;;8.68;6.75;;;;;;;17.39;71.60;95273.16;5032619;28;20063;-71
2022/06/04 02:52:41;;;;;;;8.27;6.82;;;;;;;17.46;71.47;95272.53;5050760;28;20017;-72
2022/06/04 02:55:13;;;;;;;7.22;6.53;;;;;;;17.49;70.88;95266.94;5049711;28;20098;-71
2022/06/04 02:57:41;;;;;;;7.90;6.60;;;;;;;17.56;70.58;95273.22;5048810;28;20032;-72
2022/06/04 03:00:08;;;;;;;7.40;6.70;;;;;;;17.59;70.41;95262.41;5050768;28;20044;-71
2022/06/04 03:02:33;;;;;;;8.57;6.32;;;;;;;17.59;70.37;95251.91;5016190;28;20025;-72
2022/06/04 03:05:09;;;;;;;7.78;6.82;;;;;;;17.49;70.36;95249.38;5032980;28;20040;-71
2022/06/04 03:07:36;;;;;;;8.70;6.43;;;;;;;17.52;70.39;95256.13;5049510;28;20033;-71
2022/06/04 03:10:04;;;;;;;9.10;7.25;;;;;;;17.48;70.68;95252.19;5032509;28;20033;-71
2022/06/04 03:12:30;;;;;;;8.20;6.80;;;;;;;17.41;71.17;95262.47;5016518;28;20021;-71
2022/06/04 03:14:55;;;;;;;8.18;7.07;;;;;;;17.41;71.04;95255.44;5049039;28;20029;-71
2022/06/04 03:17:21;;;;;;;8.23;6.95;;;;;;;17.38;71.39;95253.16;5049338;28;20094;-71
2022/06/04 03:19:46;;;;;;;7.72;6.93;;;;;;;17.36;71.29;95244.59;5049156;28;20033;-71
2022/06/04 03:22:12;;;;;;;7.22;6.50;;;;;;;17.42;71.22;95245.75;5049505;28;20040;-72
2022/06/04 03:24:37;;;;;;;8.20;7.40;;;;;;;17.48;70.86;95233.81;5032379;28;20475;-72
2022/06/04 03:27:03;;;;;;;8.50;6.90;;;;;;;17.54;70.56;95225.28;5048894;28;20415;-72
2022/06/04 03:29:28;;;;;;;8.80;6.90;;;;;;;17.57;70.62;95230.22;5049093;28;20057;-72
2022/06/04 03:31:54;;;;;;;8.05;6.75;;;;;;;17.63;70.54;95221.69;5032286;28;20032;-72
2022/06/04 03:34:19;;;;;;;7.93;6.78;;;;;;;17.72;70.18;95233.88;5048811;28;20450;-71
2022/06/04 03:36:45;;;;;;;7.38;6.63;;;;;;;17.64;70.20;95218.91;5050459;28;20033;-72
2022/06/04 03:39:10;;;;;;;7.25;6.60;;;;;;;17.68;70.27;95226.47;5048841;28;20037;-73
2022/06/04 03:41:36;;;;;;;8.02;6.93;;;;;;;17.69;70.35;95221.06;5048693;28;20427;-72
2022/06/04 03:44:02;;;;;;;7.15;6.47;;;;;;;17.74;70.03;95221.38;5048788;28;20036;-72
2022/06/04 03:46:28;;;;;;;7.40;6.70;;;;;;;17.76;69.85;95224.69;5050118;28;20060;-73
2022/06/04 03:48:59;;;;;;;7.00;6.40;;;;;;;17.78;69.71;95220.13;5048780;28;20039;-72
2022/06/04 03:51:25;;;;;;;7.85;6.80;;;;;;;17.75;69.74;95224.84;5049164;28;20559;-72
2022/06/04 03:53:51;;;;;;;8.57;6.18;;;;;;;17.77;69.57;95221.06;5048933;28;20036;-72
2022/06/04 03:56:16;;;;;;;7.30;6.53;;;;;;;17.80;69.40;95225.19;5032374;28;20059;-72
2022/06/04 03:58:42;;;;;;;7.30;6.60;;;;;;;17.78;69.59;95232.41;5015612;28;20040;-72
2022/06/04 04:01:14;;;;;;;8.18;6.70;;;;;;;17.86;69.54;95235.09;5048702;28;20036;-72
2022/06/04 04:03:39;;;;;;;7.72;6.82;;;;;;;17.86;69.55;95228.03;5051959;28;20029;-72
2022/06/04 04:06:05;;;;;;;9.15;6.25;;;;;;;18.00;69.04;95228.38;5053966;28;20059;-72
2022/06/04 04:08:30;;;;;;;9.63;6.38;;;;;;;18.64;67.42;95236.44;5053842;28;20033;-73
2022/06/04 04:10:56;;;;;;;6.57;5.97;;;;;;;19.30;65.11;95234.47;5052883;28;20055;-72
2022/06/04 04:13:21;;;;;;;6.35;5.75;;;;;;;19.86;62.80;95225.50;5052695;28;20175;-72
2022/06/04 04:15:47;;;;;;;6.95;6.00;;;;;;;20.36;61.13;95239.16;5053910;28;20482;-72
2022/06/04 04:18:13;;;;;;;7.43;5.22;;;;;;;20.91;59.78;95243.31;5052076;28;20468;-72
2022/06/04 04:20:41;;;;;;;7.60;5.63;;;;;;;21.41;57.81;95247.09;5052409;28;20095;-72
2022/06/04 04:23:07;;;;;;;6.60;5.82;;;;;;;21.82;57.06;95229.91;5052255;28;20078;-72
2022/06/04 04:25:33;;;;;;;8.02;5.10;;;;;;;22.45;55.31;95235.44;5054229;28;20128;-72
2022/06/04 04:27:59;;;;;;;6.35;5.10;;;;;;;22.87;54.49;95239.00;5035560;28;20112;-72
2022/06/04 04:30:26;;;;;;;6.10;5.50;;;;;;;23.46;53.37;95249.22;5051964;28;20067;-72
2022/06/04 04:32:52;;;;;;;6.78;5.47;;;;;;;24.02;51.75;95250.91;5035572;28;20029;-73
2022/06/04 04:35:20;;;;;;;5.90;5.20;;;;;;;24.27;51.60;95251.16;5052163;28;20039;-72
2022/06/04 04:37:45;;;;;;;6.10;4.78;;;;;;;24.71;50.16;95252.44;5035776;28;20111;-73
2022/06/04 04:40:11;;;;;;;6.10;4.65;;;;;;;25.01;48.69;95267.97;5042888;28;20049;-73
2022/06/04 04:42:37;;;;;;;6.40;4.80;;;;;;;25.10;48.02;95266.72;5051620;28;20021;-73
2022/06/04 04:45:07;;;;;;;4.95;4.20;;;;;;;24.88;48.88;95263.50;5053439;28;20044;-72
2022/06/04 04:47:33;;;;;;;5.28;4.78;;;;;;;24.54;49.27;95262.63;5051797;28;20037;-72
2022/06/04 04:49:59;;;;;;;5.60;4.80;;;;;;;24.37;49.67;95282.59;5049855;28;20040;-72
2022/06/04 04:52:25;;;;;;;7.15;4.85;;;;;;;24.12;50.64;95274.38;5032677;28;20029;-72
2022/06/04 04:54:51;;;;;;;5.25;4.60;;;;;;;24.07;51.07;95302.34;5051918;28;20060;-72
2022/06/04 04:57:16;;;;;;;5.53;4.50;;;;;;;23.93;51.92;95303.31;5052031;28;20446;-72
2022/06/04 04:59:42;;;;;;;6.18;5.57;;;;;;;23.74;51.80;95302.22;5049391;28;20403;-72
2022/06/04 05:02:08;;;;;;;7.85;6.78;;;;;;;23.28;53.16;95300.06;5051116;28;20052;-73
2022/06/04 05:04:35;;;;;;;8.73;7.13;;;;;;;22.97;54.25;95292.50;5051018;28;20041;-71
2022/06/04 05:07:00;;;;;;;10.52;7.65;;;;;;;22.49;55.26;95294.94;5049258;28;20507;-71
2022/06/04 05:09:26;;;;;;;8.57;6.72;;;;;;;22.17;56.47;95296.19;5033579;28;20483;-71
2022/06/04 05:11:51;;;;;;;8.52;7.45;;;;;;;22.16;57.58;95297.19;5030729;28;20100;-71
2022/06/04 05:14:17;;;;;;;9.90;7.40;;;;;;;22.23;57.29;95291.00;5052176;28;20094;-71
2022/06/04 05:16:43;;;;;;;7.65;6.85;;;;;;;22.30;56.74;95289.25;5051571;28;20027;-71
2022/06/04 05:19:08;;;;;;;8.43;7.10;;;;;;;22.49;56.87;95295.75;5048228;28;20032;-71
2022/06/04 05:21:43;;;;;;;9.15;7.00;;;;;;;22.65;56.30;95289.38;5049048;28;20040;-71
2022/06/04 05:24:17;;;;;;;10.30;7.38;;;;;;;22.69;56.27;95295.09;5016231;28;20037;-71
2022/06/04 05:26:43;;;;;;;9.00;8.07;;;;;;;22.52;56.18;95289.25;5051502;28;20079;-71
2022/06/04 05:29:08;;;;;;;8.75;6.28;;;;;;;22.53;56.79;95294.34;5048102;28;20510;-72
2022/06/04 05:31:34;;;;;;;7.80;6.35;;;;;;;22.68;56.10;95298.78;5049727;28;20298;-72
2022/06/04 05:33:59;;;;;;;8.30;6.15;;;;;;;22.83;55.45;95296.84;5033201;28;20111;-72
2022/06/04 05:36:25;;;;;;;8.38;6.13;;;;;;;22.82;55.40;95294.41;5050389;28;20025;-73
2022/06/04 05:38:50;;;;;;;7.07;6.35;;;;;;;22.81;54.90;95298.06;5016493;28;20040;-72
2022/06/04 05:41:16;;;;;;;7.72;6.25;;;;;;;22.65;55.46;95288.53;5048162;28;20037;-72
2022/06/04 05:43:41;;;;;;;12.45;7.78;;;;;;;22.61;56.65;95303.19;5031964;28;20039;-71
2022/06/04 05:46:09;;;;;;;10.43;6.68;;;;;;;22.55;56.82;95294.16;5047999;28;20029;-71
2022/06/04 05:48:39;;;;;;;8.20;6.65;;;;;;;22.57;57.16;95291.34;5048670;28;20534;-72
2022/06/04 05:51:04;;;;;;;7.40;6.57;;;;;;;22.78;56.95;95303.72;5047505;28;20033;-71
2022/06/04 05:53:30;;;;;;;8.00;6.60;;;;;;;22.77;56.37;95286.22;5047693;28;20117;-71
2022/06/04 05:55:55;;;;;;;8.02;5.80;;;;;;;22.81;56.67;95293.56;5050722;28;20392;-72
2022/06/04 05:58:21;;;;;;;9.00;6.10;;;;;;;22.96;56.75;95296.19;5034341;28;20074;-71
2022/06/04 06:00:46;;;;;;;12.48;6.55;;;;;;;23.13;56.55;95297.53;5017809;28;20461;-71
2022/06/04 06:03:12;;;;;;;9.05;6.20;;;;;;;23.22;55.25;95298.19;5049615;28;20021;-73
2022/06/04 06:05:44;;;;;;;9.68;5.97;;;;;;;23.25;55.75;95299.66;5048848;28;20123;-72
2022/06/04 06:08:10;;;;;;;12.80;6.97;;;;;;;23.39;55.58;95309.31;5048589;28;20474;-71
2022/06/04 06:10:42;;;;;;;8.50;5.97;;;;;;;23.50;55.35;95311.41;5048555;28;20029;-72
2022/06/04 06:13:08;;;;;;;12.57;6.28;;;;;;;23.54;55.42;95299.44;5031744;28;20035;-72
2022/06/04 06:15:34;;;;;;;18.15;6.50;;;;;;;23.67;55.25;95303.97;5048530;28;20037;-72
2022/06/04 06:17:59;;;;;;;8.10;7.15;;;;;;;23.77;54.64;95299.16;5049780;28;20025;-70
2022/06/04 06:20:24;;;;;;;10.13;6.82;;;;;;;23.73;54.46;95297.91;5050541;28;20037;-71
2022/06/04 06:22:50;;;;;;;7.90;6.18;;;;;;;23.90;53.96;95286.97;5034155;28;20055;-71
2022/06/04 06:25:16;;;;;;;8.88;6.20;;;;;;;23.89;54.13;95295.94;5049635;28;20533;-70
2022/06/04 06:27:42;;;;;;;9.57;6.35;;;;;;;23.86;54.55;95275.94;5051653;28;20414;-71
2022/06/04 06:30:08;;;;;;;7.25;6.53;;;;;;;23.79;54.51;95291.84;5050054;28;20059;-71
2022/06/04 06:32:33;;;;;;;13.52;6.97;;;;;;;23.69;55.06;95277.25;5051441;28;20017;-71
2022/06/04 06:34:59;;;;;;;11.63;7.28;;;;;;;23.90;54.65;95286.97;5051592;28;20032;-71
2022/06/04 06:37:24;;;;;;;10.63;6.25;;;;;;;24.02;54.36;95280.91;5050227;28;20029;-71
2022/06/04 06:39:50;;;;;;;8.05;6.53;;;;;;;24.05;53.56;95280.50;5051426;28;20086;-71
2022/06/04 06:42:15;;;;;;;8.63;6.32;;;;;;;24.05;54.44;95280.50;5051328;28;20451;-70
2022/06/04 06:44:41;;;;;;;8.10;6.20;;;;;;;24.05;54.53;95280.50;5051414;28;20048;-71
2022/06/04 06:47:07;;;;;;;10.10;6.70;;;;;;;24.08;55.22;95284.59;5050311;28;20057;-70
2022/06/04 06:49:33;;;;;;;9.07;6.90;;;;;;;24.07;56.48;95273.16;5051325;28;20025;-70
2022/06/04 06:52:00;;;;;;;10.18;7.25;;;;;;;24.00;55.95;95269.66;5033292;28;20040;-71
2022/06/04 06:54:29;;;;;;;12.60;7.18;;;;;;;24.13;55.79;95274.19;5051196;28;20029;-70
2022/06/04 06:56:56;;;;;;;12.40;6.65;;;;;;;24.27;55.12;95267.09;5049849;28;20056;-71
2022/06/04 06:59:23;;;;;;;11.95;7.00;;;;;;;24.26;56.03;95268.91;5033473;28;20110;-70
2022/06/04 07:01:49;;;;;;;11.73;6.63;;;;;;;24.46;55.28;95269.00;5049759;28;20040;-71
2022/06/04 07:04:14;;;;;;;12.32;7.28;;;;;;;24.60;54.00;95266.31;5049720;28;20483;-71
2022/06/04 07:06:44;;;;;;;10.63;7.10;;;;;;;24.63;54.68;95244.69;5051233;28;20122;-71
2022/06/04 07:09:15;;;;;;;13.00;6.75;;;;;;;24.71;54.16;95255.94;5049829;28;20405;-71
2022/06/04 07:11:41;;;;;;;11.88;7.15;;;;;;;24.77;53.53;95256.97;5033548;28;20051;-71
2022/06/04 07:14:07;;;;;;;10.27;6.22;;;;;;;24.82;54.20;95249.16;5033020;28;20048;-71
2022/06/04 07:16:32;;;;;;;8.60;6.43;;;;;;;25.02;53.65;95249.19;5050831;28;20474;-71
2022/06/04 07:18:58;;;;;;;7.15;5.55;;;;;;;25.18;52.68;95253.25;5049479;28;20112;-71
2022/06/04 07:21:24;;;;;;;9.77;6.15;;;;;;;25.31;51.63;95247.91;5032899;28;20434;-71
2022/06/04 07:23:49;;;;;;;7.13;5.80;;;;;;;25.40;51.38;95230.72;5049385;28;20495;-70
2022/06/04 07:26:15;;;;;;;9.05;5.82;;;;;;;25.71;52.00;95242.47;5032910;28;20029;-72
2022/06/04 07:28:41;;;;;;;7.18;5.95;;;;;;;25.72;51.41;95222.84;5049547;28;20151;-71
2022/06/04 07:31:07;;;;;;;7.28;5.45;;;;;;;25.78;51.53;95216.66;5032924;28;20067;-71
2022/06/04 07:33:32;;;;;;;9.02;6.28;;;;;;;26.00;50.64;95214.53;5049386;28;20108;-71
2022/06/04 07:35:59;;;;;;;8.38;5.68;;;;;;;26.20;50.67;95217.09;5033643;28;20056;-71
2022/06/04 07:38:24;;;;;;;7.57;6.28;;;;;;;26.39;50.15;95214.50;5037046;28;20025;-71
2022/06/04 07:40:50;;;;;;;8.73;5.57;;;;;;;26.22;50.29;95217.69;5053530;28;20045;-71
2022/06/04 07:43:15;;;;;;;11.02;5.40;;;;;;;26.23;50.71;95218.50;5036815;28;20491;-71
2022/06/04 07:45:41;;;;;;;8.88;5.13;;;;;;;26.16;50.21;95205.25;5055050;28;20491;-71
2022/06/04 07:48:07;;;;;;;9.88;5.45;;;;;;;26.19;48.74;95214.66;5053360;28;20479;-71
2022/06/04 07:50:33;;;;;;;9.35;5.32;;;;;;;26.17;50.23;95214.84;5053434;28;20040;-71
2022/06/04 07:52:58;;;;;;;6.25;5.43;;;;;;;26.17;49.30;95212.19;5053223;28;20486;-72
2022/06/04 07:55:24;;;;;;;7.15;4.95;;;;;;;26.23;49.31;95206.00;5054782;28;20063;-71
2022/06/04 07:57:50;;;;;;;6.95;4.82;;;;;;;26.40;49.42;95200.97;5053205;28;20391;-73
2022/06/04 08:00:15;;;;;;;8.77;5.32;;;;;;;26.65;48.56;95210.84;5053188;28;20095;-71
2022/06/04 08:02:42;;;;;;;7.75;4.97;;;;;;;26.72;48.14;95204.44;5053016;28;20028;-71
2022/06/04 08:05:08;;;;;;;7.00;5.10;;;;;;;26.78;49.35;95205.44;5054548;28;20041;-71
2022/06/04 08:07:34;;;;;;;8.77;5.00;;;;;;;26.87;47.93;95197.97;5053046;28;20029;-71
2022/06/04 08:10:00;;;;;;;6.13;5.10;;;;;;;27.02;47.97;95206.41;5054363;28;20033;-71
2022/06/04 08:12:29;;;;;;;8.63;4.72;;;;;;;27.14;47.84;95202.00;5053005;28;20111;-71
2022/06/04 08:14:55;;;;;;;11.40;5.50;;;;;;;27.22;47.69;95202.75;5036731;28;20058;-71
2022/06/04 08:17:23;;;;;;;7.68;4.88;;;;;;;27.31;46.31;95193.47;5052843;28;20029;-71
2022/06/04 08:19:48;;;;;;;7.40;5.07;;;;;;;27.33;47.79;95197.53;5052766;28;20039;-72
2022/06/04 08:22:14;;;;;;;6.40;5.05;;;;;;;27.22;47.68;95187.59;5017821;28;20119;-72
2022/06/04 08:24:40;;;;;;;8.70;4.82;;;;;;;27.09;48.12;95185.84;5035153;28;20047;-72
2022/06/04 08:27:05;;;;;;;8.85;4.65;;;;;;;26.90;48.51;95181.53;5052233;28;20037;-71
2022/06/04 08:29:33;;;;;;;7.30;5.25;;;;;;;26.95;48.73;95174.50;5049189;28;20527;-69
2022/06/04 08:31:59;;;;;;;8.45;5.10;;;;;;;26.94;48.67;95162.22;5047395;28;20506;-70
2022/06/04 08:34:24;;;;;;;8.02;4.80;;;;;;;26.82;49.14;95176.47;5051449;28;20033;-72
2022/06/04 08:36:50;;;;;;;7.95;4.80;;;;;;;26.85;48.73;95170.72;5034993;28;20040;-72
2022/06/04 08:39:16;;;;;;;6.25;4.80;;;;;;;26.62;47.67;95174.00;5032527;28;20037;-70
2022/06/04 08:41:50;;;;;;;5.18;4.00;;;;;;;26.62;48.02;95166.81;5018071;28;20025;-71
2022/06/04 08:44:20;;;;;;;9.38;4.18;;;;;;;26.57;46.34;95161.31;5050290;28;20037;-72
2022/06/04 08:46:53;;;;;;;6.90;3.97;;;;;;;26.51;45.72;95162.19;5032778;28;20507;-72
2022/06/04 08:49:29;;;;;;;4.20;3.63;;;;;;;26.52;44.99;95158.50;5047557;28;20051;-73
2022/06/04 08:51:56;;;;;;;4.35;3.50;;;;;;;26.57;46.05;95158.66;5049940;28;20029;-72
2022/06/04 09:00:13;;;;;;;8.80;3.60;;;;;;;26.79;44.44;95147.63;5034879;28;20044;-72
2022/06/04 09:02:45;;;;;;;5.82;3.97;;;;;;;26.96;45.02;95146.00;5050065;28;20036;-72
2022/06/04 09:05:20;;;;;;;5.57;3.85;;;;;;;27.09;46.02;95140.53;5051570;28;20090;-72
2022/06/04 09:07:49;;;;;;;5.15;3.80;;;;;;;27.04;45.54;95128.91;5034337;28;20025;-72
2022/06/04 09:10:23;;;;;;;7.13;3.75;;;;;;;27.03;44.94;95124.63;5034446;28;20067;-73
2022/06/04 09:12:55;;;;;;;6.00;3.75;;;;;;;27.17;43.81;95134.13;5031253;28;20071;-73
2022/06/04 09:15:24;;;;;;;5.03;4.05;;;;;;;27.09;43.23;95134.38;5035392;28;20498;-72
2022/06/04 09:17:51;;;;;;;7.07;4.13;;;;;;;27.07;43.53;95134.59;5032850;28;20060;-72
2022/06/04 09:20:31;;;;;;;7.53;4.10;;;;;;;27.19;43.93;95137.38;5050144;28;20066;-71
2022/06/04 09:23:18;;;;;;;6.35;3.72;;;;;;;27.21;43.94;95137.97;5048866;28;20029;-71
2022/06/04 09:25:45;;;;;;;6.00;3.97;;;;;;;27.18;45.86;95133.06;5019487;28;20049;-72
2022/06/04 09:28:23;;;;;;;5.15;3.40;;;;;;;27.26;43.94;95142.63;5049785;28;20067;-72
2022/06/04 09:31:18;;;;;;;5.80;3.70;;;;;;;27.36;43.29;95138.41;5051719;28;20053;-72
2022/06/04 09:34:07;;;;;;;5.70;4.00;;;;;;;27.46;45.00;95139.72;5023748;28;20040;-73
2022/06/04 09:36:35;;;;;;;4.55;3.58;;;;;;;27.48;44.12;95135.81;5034572;28;20041;-72
2022/06/04 09:39:22;;;;;;;7.10;4.20;;;;;;;27.61;44.13;95132.97;5049965;28;20132;-72
2022/06/04 09:41:53;;;;;;;6.60;4.28;;;;;;;27.81;43.48;95134.59;5034317;28;20037;-72
2022/06/04 09:44:19;;;;;;;4.90;3.88;;;;;;;27.93;42.31;95127.41;5052276;28;20041;-72
2022/06/04 09:46:46;;;;;;;6.32;4.20;;;;;;;28.02;43.02;95125.22;5033021;28;20025;-72
2022/06/04 09:49:31;;;;;;;4.70;4.25;;;;;;;28.21;42.03;95128.66;5030293;28;20057;-72
2022/06/04 09:51:57;;;;;;;6.93;3.75;;;;;;;28.34;42.42;95122.28;5047376;28;20065;-72
2022/06/04 09:54:25;;;;;;;7.25;3.97;;;;;;;28.50;41.11;95130.47;5033408;28;20474;-71
2022/06/04 09:57:02;;;;;;;6.07;4.10;;;;;;;28.58;40.99;95131.97;5049122;28;20159;-72
2022/06/04 09:59:29;;;;;;;6.63;4.32;;;;;;;28.76;41.82;95136.41;5033301;28;20092;-72
2022/06/04 10:02:01;;;;;;;7.20;4.00;;;;;;;28.90;41.50;95136.97;5032119;28;20108;-72
2022/06/04 10:04:47;;;;;;;7.47;4.28;;;;;;;29.00;41.48;95126.50;5047497;28;20394;-72
2022/06/04 10:07:26;;;;;;;6.38;4.60;;;;;;;29.14;41.37;95130.59;5016733;28;20063;-72
2022/06/04 10:09:56;;;;;;;6.60;4.40;;;;;;;29.26;40.79;95124.41;5032574;28;20434;-72
2022/06/04 10:15:27;;;;;;;11.77;6.82;;;;;;;29.34;40.38;95111.47;5029375;28;20524;-73
2022/06/04 10:17:59;;;;;;;6.70;4.43;;;;;;;29.42;40.18;95112.97;5031432;28;20032;-74
2022/06/04 10:20:25;;;;;;;7.22;4.20;;;;;;;29.42;38.81;95122.84;5060543;28;20037;-71
2022/06/04 10:22:50;;;;;;;5.95;4.60;;;;;;;29.33;39.37;95125.88;5026345;28;21031;-71
2022/06/04 10:25:26;;;;;;;5.57;3.65;;;;;;;29.29;38.41;95114.03;5025852;28;20122;-71
2022/06/04 10:28:10;;;;;;;7.07;4.20;;;;;;;29.38;39.09;95115.28;5052824;28;20037;-70
2022/06/04 10:31:03;;;;;;;6.28;4.00;;;;;;;29.44;39.46;95110.84;5043714;28;20056;-70
2022/06/04 10:33:42;;;;;;;4.93;3.55;;;;;;;29.43;38.78;95111.09;5026066;28;20579;-70
2022/06/04 10:36:17;;;;;;;6.88;4.70;;;;;;;29.42;39.01;95102.25;5040164;28;20035;-71
2022/06/04 10:39:16;;;;;;;5.97;4.00;;;;;;;29.40;38.08;95110.50;5043005;28;20063;-71
2022/06/04 10:41:52;;;;;;;6.23;4.27;;;;;;;29.39;39.33;95097.38;5042350;28;20025;-72
2022/06/04 10:44:49;;;;;;;6.32;3.92;;;;;;;29.38;38.89;95096.56;5045661;28;20036;-72
2022/06/04 10:47:35;;;;;;;3.97;3.58;;;;;;;29.45;38.32;95084.91;5042136;28;20116;-72
2022/06/04 10:50:13;;;;;;;4.97;3.60;;;;;;;29.48;39.58;95090.59;5042627;28;20033;-72
2022/06/04 10:52:48;;;;;;;5.25;3.83;;;;;;;29.51;39.52;95084.78;5040399;28;20517;-73
2022/06/04 10:55:28;;;;;;;6.03;3.47;;;;;;;29.60;39.01;95079.84;5011450;28;20033;-72
2022/06/04 10:58:17;;;;;;;6.65;3.78;;;;;;;29.55;37.87;95077.06;5039558;28;20021;-73
2022/06/04 11:00:50;;;;;;;5.75;4.00;;;;;;;29.61;37.94;95074.28;5056321;28;20039;-75
2022/06/04 11:03:28;;;;;;;6.40;3.75;;;;;;;29.68;38.79;95068.78;5053349;28;20163;-75
2022/06/04 11:06:16;;;;;;;6.82;3.90;;;;;;;29.70;37.52;95066.69;5039787;28;20029;-75
2022/06/04 11:08:49;;;;;;;7.13;4.13;;;;;;;29.73;37.16;95068.88;5037162;28;20087;-75
2022/06/04 11:11:29;;;;;;;6.47;4.20;;;;;;;29.73;37.71;95068.88;5036246;28;20064;-75
2022/06/04 11:13:57;;;;;;;6.13;3.85;;;;;;;29.74;38.06;95062.47;5045949;28;20041;-75
2022/06/04 11:16:38;;;;;;;7.70;4.00;;;;;;;29.78;38.06;95058.28;5033314;28;20033;-75
2022/06/04 11:19:06;;;;;;;7.90;3.90;;;;;;;29.90;38.56;95055.53;5018040;28;20071;-75
2022/06/04 11:21:38;;;;;;;7.75;3.85;;;;;;;29.96;37.68;95051.88;5032007;28;20044;-75
2022/06/04 11:24:36;;;;;;;6.43;3.85;;;;;;;29.94;35.67;95051.28;5048839;28;20087;-75
2022/06/04 11:27:16;;;;;;;6.13;3.80;;;;;;;29.98;36.85;95051.66;5049309;28;20529;-75
2022/06/04 11:29:42;;;;;;;9.32;4.40;;;;;;;30.10;37.98;95043.53;5050437;28;20056;-75
2022/06/04 11:32:27;;;;;;;4.28;3.53;;;;;;;30.27;36.59;95053.19;5032273;28;20057;-75
2022/06/04 11:35:31;;;;;;;5.43;3.40;;;;;;;30.38;36.17;95056.03;5030921;28;20475;-75
2022/06/04 11:38:32;;;;;;;6.65;3.72;;;;;;;30.39;36.20;95063.81;5050367;28;20037;-75
2022/06/04 11:41:03;;;;;;;6.18;4.05;;;;;;;30.37;35.36;95057.06;5046378;28;20049;-75
2022/06/04 11:44:01;;;;;;;6.30;3.50;;;;;;;30.29;36.57;95063.69;5046922;28;20105;-75
2022/06/04 11:46:39;;;;;;;6.57;3.97;;;;;;;30.24;35.31;95045.66;5042768;28;20037;-74
2022/06/04 11:49:29;;;;;;;7.10;4.32;;;;;;;30.23;35.13;95053.94;5040198;28;20029;-74
2022/06/04 11:52:16;;;;;;;6.05;4.60;;;;;;;30.22;35.78;95045.06;5062557;28;20044;-74
2022/06/04 11:54:53;;;;;;;5.97;3.90;;;;;;;30.33;36.16;95042.56;5041593;28;20454;-74
2022/06/04 11:57:50;;;;;;;7.82;4.13;;;;;;;30.41;35.66;95034.91;5058705;28;20576;-74
2022/06/04 12:00:31;;;;;;;6.38;4.25;;;;;;;30.45;35.70;95043.28;5062279;28;20108;-75
2022/06/04 12:03:35;;;;;;;6.45;3.90;;;;;;;30.49;35.01;95041.75;5040654;28;20037;-75